Time;durP1;ratioP1;P1;durP2;ratioP2;P2;SDS_P1;SDS_P2;PMS_P1;PMS_P2;Temp;Humidity;BMP_temperature;BMP_pressure;BME280_temperature;BME280_humidity;BME280_pressure;Samples;Min_cycle;Max_cycle;Signal;HPM_P1;HPM_P2
2022/09/27 00:00:57;0.00;0.00;0.62;0.00;0.00;0.62;1.60;1.20;;;26.80;27.90;;;;;;2233416;62;20829;-61
2022/09/27 00:03:44;0.00;0.00;0.62;0.00;0.00;0.62;1.90;1.40;;;26.80;27.90;;;;;;2233295;62;20404;-62
2022/09/27 00:06:31;0.00;0.00;0.62;0.00;0.00;0.62;1.70;1.10;;;26.80;27.90;;;;;;2233480;62;20372;-63
2022/09/27 00:09:16;0.00;0.00;0.62;0.00;0.00;0.62;2.13;1.50;;;26.80;27.90;;;;;;2232963;62;20392;-62
2022/09/27 00:12:04;0.00;0.00;0.62;0.00;0.00;0.62;1.60;1.00;;;26.80;27.90;;;;;;2233326;62;20364;-62
2022/09/27 00:14:49;0.00;0.00;0.62;0.00;0.00;0.62;1.83;1.10;;;26.80;27.90;;;;;;2234465;62;20369;-63
2022/09/27 00:17:35;0.00;0.00;0.62;0.00;0.00;0.62;1.57;1.00;;;26.80;27.90;;;;;;2233655;62;20496;-62
2022/09/27 00:20:21;0.00;0.00;0.62;0.00;0.00;0.62;1.80;0.80;;;26.80;27.90;;;;;;2234169;62;20369;-61
2022/09/27 00:23:07;0.00;0.00;0.62;0.00;0.00;0.62;1.87;1.17;;;26.70;27.80;;;;;;2234043;62;20393;-62
2022/09/27 00:25:56;0.00;0.00;0.62;0.00;0.00;0.62;1.97;1.30;;;26.80;27.90;;;;;;2232771;62;20585;-61
2022/09/27 00:28:44;0.00;0.00;0.62;0.00;0.00;0.62;2.70;1.20;;;26.70;27.80;;;;;;2233263;62;20424;-62
2022/09/27 00:31:31;0.00;0.00;0.62;0.00;0.00;0.62;2.03;1.20;;;26.80;27.90;;;;;;2240974;59;20667;-62
2022/09/27 00:34:19;0.00;0.00;0.62;0.00;0.00;0.62;2.33;1.10;;;26.70;27.90;;;;;;2235652;62;20753;-60
2022/09/27 00:37:51;0.00;0.00;0.62;0.00;0.00;0.62;1.77;1.10;;;26.70;27.90;;;;;;2234230;62;20409;-62
2022/09/27 00:40:38;0.00;0.00;0.62;0.00;0.00;0.62;1.87;0.90;;;26.70;27.90;;;;;;2233113;62;20415;-62
2022/09/27 00:43:23;0.00;0.00;0.62;0.00;0.00;0.62;1.50;0.90;;;26.80;27.90;;;;;;2238723;62;20735;-63
2022/09/27 00:46:14;0.00;0.00;0.62;0.00;0.00;0.62;1.63;1.03;;;26.70;27.90;;;;;;2238783;61;20377;-63
2022/09/27 00:49:10;0.00;0.00;0.62;0.00;0.00;0.62;2.77;0.90;;;26.70;27.90;;;;;;2235900;62;20403;-63
2022/09/27 00:52:07;0.00;0.00;0.62;0.00;0.00;0.62;1.50;0.90;;;26.70;27.90;;;;;;2213535;62;20789;-63
2022/09/27 00:55:12;0.00;0.00;0.62;0.00;0.00;0.62;1.70;1.00;;;26.80;28.00;;;;;;2156326;63;1260492;-62
2022/09/27 00:58:17;0.00;0.00;0.62;0.00;0.00;0.62;1.40;0.87;;;26.70;27.90;;;;;;2169486;63;20292;-62
2022/09/27 01:01:09;0.00;0.00;0.62;0.00;0.00;0.62;1.67;0.90;;;26.70;27.90;;;;;;2164876;64;20612;-64
2022/09/27 01:04:02;0.00;0.00;0.62;0.00;0.00;0.62;1.83;0.97;;;26.70;27.90;;;;;;2167474;64;20373;-63
2022/09/27 01:06:47;0.00;0.00;0.62;0.00;0.00;0.62;1.83;1.00;;;26.70;27.80;;;;;;2165804;64;20380;-65
2022/09/27 01:09:33;0.00;0.00;0.62;0.00;0.00;0.62;1.60;0.70;;;26.70;27.80;;;;;;2165070;64;20440;-64
2022/09/27 01:12:29;0.00;0.00;0.62;0.00;0.00;0.62;1.63;0.87;;;26.70;27.80;;;;;;2165189;64;20380;-65
2022/09/27 01:15:24;0.00;0.00;0.62;0.00;0.00;0.62;3.33;1.10;;;26.70;27.80;;;;;;2165134;64;20607;-64
2022/09/27 01:18:31;0.00;0.00;0.62;0.00;0.00;0.62;1.60;0.93;;;26.60;27.70;;;;;;2167586;64;20411;-63
2022/09/27 01:21:45;0.00;0.00;0.62;0.00;0.00;0.62;1.50;0.90;;;26.60;27.70;;;;;;2165819;64;20377;-65
2022/09/27 01:25:20;0.00;0.00;0.62;0.00;0.00;0.62;1.40;0.80;;;26.60;27.70;;;;;;2165096;64;20384;-63
2022/09/27 01:28:21;0.00;0.00;0.62;0.00;0.00;0.62;1.93;0.90;;;26.50;27.70;;;;;;2165100;64;20416;-63
2022/09/27 01:31:16;0.00;0.00;0.62;0.00;0.00;0.62;1.30;0.70;;;26.50;27.70;;;;;;2167344;64;20558;-64
2022/09/27 01:34:08;0.00;0.00;0.62;0.00;0.00;0.62;1.40;0.90;;;26.50;27.70;;;;;;2165012;64;20607;-62
2022/09/27 01:37:05;0.00;0.00;0.62;0.00;0.00;0.62;1.43;0.87;;;26.40;27.70;;;;;;2164922;64;20421;-63
2022/09/27 01:39:56;0.00;0.00;0.62;0.00;0.00;0.62;1.30;0.70;;;26.50;27.70;;;;;;2164840;64;20624;-65
2022/09/27 01:42:54;0.00;0.00;0.62;0.00;0.00;0.62;1.43;0.80;;;26.40;27.70;;;;;;2165531;64;20436;-63
2022/09/27 01:45:48;0.00;0.00;0.62;0.00;0.00;0.62;1.30;0.80;;;26.40;27.70;;;;;;2164779;64;20522;-63
2022/09/27 01:48:56;0.00;0.00;0.62;0.00;0.00;0.62;1.33;0.83;;;26.40;27.70;;;;;;2167087;64;20396;-65
2022/09/27 01:51:47;0.00;0.00;0.62;0.00;0.00;0.62;1.23;0.70;;;26.40;27.70;;;;;;2164880;64;20806;-64
2022/09/27 01:54:39;0.00;0.00;0.62;0.00;0.00;0.62;1.57;0.80;;;26.40;27.70;;;;;;2177905;63;20405;-63
2022/09/27 01:57:54;0.00;0.00;0.62;0.00;0.00;0.62;1.20;0.60;;;26.30;27.60;;;;;;2185689;63;20379;-64
2022/09/27 02:00:45;0.00;0.00;0.62;0.00;0.00;0.62;1.47;0.77;;;26.30;27.70;;;;;;2189651;63;20368;-64
2022/09/27 02:03:36;0.00;0.00;0.62;0.00;0.00;0.62;1.40;0.80;;;26.30;27.70;;;;;;2189680;63;20378;-63
2022/09/27 02:07:02;0.00;0.00;0.62;0.00;0.00;0.62;1.30;0.60;;;26.30;27.70;;;;;;2188112;63;20386;-65
2022/09/27 02:09:55;0.00;0.00;0.62;0.00;0.00;0.62;1.50;0.93;;;26.20;27.70;;;;;;2189754;63;20399;-65
2022/09/27 02:12:50;0.00;0.00;0.62;0.00;0.00;0.62;1.40;0.70;;;26.20;27.70;;;;;;2190890;63;20388;-64
2022/09/27 02:15:51;0.00;0.00;0.62;0.00;0.00;0.62;1.30;0.70;;;26.20;27.70;;;;;;2190569;63;20652;-65
2022/09/27 02:19:05;0.00;0.00;0.62;0.00;0.00;0.62;1.50;0.70;;;26.20;27.70;;;;;;2191423;63;20458;-65
2022/09/27 02:21:59;0.00;0.00;0.62;0.00;0.00;0.62;1.63;0.80;;;26.20;27.70;;;;;;2191128;63;20781;-64
2022/09/27 02:24:56;0.00;0.00;0.62;0.00;0.00;0.62;1.30;0.70;;;26.10;27.70;;;;;;2191595;63;20453;-64
2022/09/27 02:27:54;0.00;0.00;0.62;0.00;0.00;0.62;1.43;0.80;;;26.10;27.70;;;;;;2193867;63;20600;-64
2022/09/27 02:30:40;0.00;0.00;0.62;0.00;0.00;0.62;1.30;0.70;;;26.10;27.70;;;;;;2193188;63;20609;-64
2022/09/27 02:33:43;0.00;0.00;0.62;0.00;0.00;0.62;1.40;0.70;;;26.00;27.60;;;;;;2191113;63;20425;-64
2022/09/27 02:36:29;0.00;0.00;0.62;0.00;0.00;0.62;2.23;0.80;;;26.00;27.70;;;;;;2191152;63;20777;-63
2022/09/27 02:39:17;0.00;0.00;0.62;0.00;0.00;0.62;1.47;0.83;;;26.00;27.70;;;;;;2191066;63;20398;-65
2022/09/27 02:42:03;0.00;0.00;0.62;0.00;0.00;0.62;1.30;0.70;;;26.00;27.70;;;;;;2191091;63;20609;-64
2022/09/27 02:44:49;0.00;0.00;0.62;0.00;0.00;0.62;1.40;0.80;;;26.00;27.70;;;;;;2190612;63;20758;-64
2022/09/27 02:47:54;0.00;0.00;0.62;0.00;0.00;0.62;1.37;0.80;;;25.90;27.70;;;;;;2190704;63;20528;-64
2022/09/27 02:51:25;0.00;0.00;0.62;0.00;0.00;0.62;2.10;0.87;;;25.90;27.80;;;;;;2191445;63;20398;-63
2022/09/27 02:54:25;0.00;0.00;0.62;0.00;0.00;0.62;2.60;0.90;;;25.90;27.80;;;;;;2202324;62;20381;-64
2022/09/27 02:57:32;0.00;0.00;0.62;0.00;0.00;0.62;1.50;0.90;;;25.90;27.80;;;;;;2216295;62;20411;-64
2022/09/27 03:00:46;0.00;0.00;0.62;0.00;0.00;0.62;1.70;0.83;;;25.80;27.80;;;;;;2214648;62;20773;-65
2022/09/27 03:04:04;0.00;0.00;0.62;0.00;0.00;0.62;1.60;0.73;;;25.80;27.80;;;;;;2218074;62;20368;-64
2022/09/27 03:06:52;0.00;0.00;0.62;0.00;0.00;0.62;1.70;0.90;;;25.80;27.80;;;;;;2217749;62;20494;-64
2022/09/27 03:09:46;0.00;0.00;0.62;0.00;0.00;0.62;1.60;0.90;;;25.80;27.90;;;;;;2217761;62;20392;-65
2022/09/27 03:12:33;0.00;0.00;0.62;0.00;0.00;0.62;2.13;1.00;;;25.70;27.80;;;;;;2215280;62;20597;-62
2022/09/27 03:15:18;0.00;0.00;0.62;0.00;0.00;0.62;1.87;0.80;;;25.70;27.80;;;;;;2217635;62;20433;-65
2022/09/27 03:18:19;0.00;0.00;0.62;0.00;0.00;0.62;1.50;0.83;;;25.70;27.80;;;;;;2218090;62;20387;-62
2022/09/27 03:21:15;0.00;0.00;0.62;0.00;0.00;0.62;1.53;0.87;;;25.70;27.90;;;;;;2217900;62;20370;-63
2022/09/27 03:24:02;0.00;0.00;0.62;0.00;0.00;0.62;1.50;0.80;;;25.60;27.90;;;;;;2217611;62;20368;-64
2022/09/27 03:26:49;0.00;0.00;0.62;0.00;0.00;0.62;1.37;0.70;;;25.60;27.90;;;;;;2217906;62;20590;-63
2022/09/27 03:29:34;0.00;0.00;0.62;0.00;0.00;0.62;1.30;0.70;;;25.60;27.90;;;;;;2216993;62;20392;-65
2022/09/27 03:32:24;0.00;0.00;0.62;0.00;0.00;0.62;1.40;0.80;;;25.60;27.90;;;;;;2214726;62;20373;-64
2022/09/27 03:35:28;0.00;0.00;0.62;0.00;0.00;0.62;1.30;0.70;;;25.50;27.90;;;;;;2217955;62;20401;-65
2022/09/27 03:38:13;0.00;0.00;0.62;0.00;0.00;0.62;2.07;0.80;;;25.50;27.90;;;;;;2217610;62;20815;-62
2022/09/27 03:40:59;0.00;0.00;0.62;0.00;0.00;0.62;1.50;0.70;;;25.50;27.90;;;;;;2218034;62;20738;-65
2022/09/27 03:43:45;0.00;0.00;0.62;0.00;0.00;0.62;1.47;0.80;;;25.50;28.00;;;;;;2217130;62;20417;-63
2022/09/27 03:46:30;0.00;0.00;0.62;0.00;0.00;0.62;1.47;0.63;;;25.50;28.00;;;;;;2217278;62;20607;-64
2022/09/27 03:49:16;0.00;0.00;0.62;0.00;0.00;0.62;1.63;0.90;;;25.50;28.00;;;;;;2218682;62;20395;-64
2022/09/27 03:52:02;0.00;0.00;0.62;0.00;0.00;0.62;1.70;0.90;;;25.50;28.10;;;;;;2217921;62;20409;-65
2022/09/27 03:54:47;0.00;0.00;0.62;0.00;0.00;0.62;1.70;0.87;;;25.50;28.10;;;;;;2217287;62;20375;-63
2022/09/27 03:57:32;0.00;0.00;0.62;0.00;0.00;0.62;1.40;0.80;;;25.50;28.10;;;;;;2220795;62;20607;-64
2022/09/27 04:00:19;0.00;0.00;0.62;0.00;0.00;0.62;1.80;1.10;;;25.40;28.10;;;;;;2221824;62;20408;-65
2022/09/27 04:03:04;0.00;0.00;0.62;0.00;0.00;0.62;1.30;0.70;;;25.40;28.10;;;;;;2222444;62;20800;-63
2022/09/27 04:06:08;0.00;0.00;0.62;0.00;0.00;0.62;1.60;0.77;;;25.40;28.10;;;;;;2222164;62;20666;-64
2022/09/27 04:08:57;0.00;0.00;0.62;0.00;0.00;0.62;1.87;0.80;;;25.40;28.20;;;;;;2219105;62;20391;-64
2022/09/27 04:11:51;0.00;0.00;0.62;0.00;0.00;0.62;1.90;0.87;;;25.40;28.20;;;;;;2222370;62;20356;-64
2022/09/27 04:14:37;0.00;0.00;0.62;0.00;0.00;0.62;2.27;0.90;;;25.40;28.20;;;;;;2221728;62;20496;-62
2022/09/27 04:17:52;0.00;0.00;0.62;0.00;0.00;0.62;1.30;0.70;;;25.40;28.20;;;;;;2215900;62;20390;-63
2022/09/27 04:20:57;0.00;0.00;0.62;0.00;0.00;0.62;1.30;0.70;;;25.40;28.20;;;;;;2221817;62;20409;-62
2022/09/27 04:23:42;0.00;0.00;0.62;0.00;0.00;0.62;1.50;0.80;;;25.40;28.20;;;;;;2219098;62;20371;-64
2022/09/27 04:26:31;0.00;0.00;0.62;0.00;0.00;0.62;1.40;0.90;;;25.40;28.20;;;;;;2219739;62;20625;-65
2022/09/27 04:29:21;0.00;0.00;0.62;0.00;0.00;0.62;1.73;0.87;;;25.40;28.30;;;;;;2222221;62;20390;-63
2022/09/27 04:32:09;0.00;0.00;0.62;0.00;0.00;0.62;1.80;1.00;;;25.40;28.30;;;;;;2222080;62;20396;-64
2022/09/27 04:38:22;0.00;0.00;0.62;0.00;0.00;0.62;1.90;1.07;;;25.30;28.20;;;;;;2221587;62;20667;-63
2022/09/27 04:41:08;0.00;0.00;0.62;0.00;0.00;0.62;1.67;1.23;;;25.30;28.30;;;;;;2219740;62;20408;-63
2022/09/27 04:44:00;0.00;0.00;0.62;0.00;0.00;0.62;2.33;1.23;;;25.30;28.30;;;;;;2218989;62;20405;-64
2022/09/27 04:46:45;0.00;0.00;0.62;0.00;0.00;0.62;1.40;0.90;;;25.30;28.30;;;;;;2219206;62;20495;-62
2022/09/27 04:49:31;0.00;0.00;0.62;0.00;0.00;0.62;1.83;1.10;;;25.30;28.30;;;;;;2221869;62;20391;-64
2022/09/27 04:52:17;0.00;0.00;0.62;0.00;0.00;0.62;1.50;1.00;;;25.30;28.30;;;;;;2222901;62;20390;-64
2022/09/27 04:55:03;0.00;0.00;0.62;0.00;0.00;0.62;1.70;1.10;;;25.30;28.30;;;;;;2230441;62;20759;-62
2022/09/27 04:57:50;0.00;0.00;0.62;0.00;0.00;0.62;1.60;1.00;;;25.20;28.30;;;;;;2229236;62;20445;-65
2022/09/27 05:00:35;0.00;0.00;0.62;0.00;0.00;0.62;2.10;1.00;;;25.20;28.30;;;;;;2229399;62;20778;-63
2022/09/27 05:03:39;0.00;0.00;0.62;0.00;0.00;0.62;2.40;1.00;;;25.20;28.30;;;;;;2229957;62;20605;-62
2022/09/27 05:06:29;0.00;0.00;0.62;0.00;0.00;0.62;1.80;1.10;;;25.20;28.30;;;;;;2226696;62;20459;-63
2022/09/27 05:09:20;0.00;0.00;0.62;0.00;0.00;0.62;2.17;1.07;;;25.20;28.30;;;;;;2226920;62;20416;-64
2022/09/27 05:12:08;0.00;0.00;0.62;0.00;0.00;0.62;2.00;1.10;;;25.20;28.40;;;;;;2229750;62;20362;-64
2022/09/27 05:14:56;0.00;0.00;0.62;0.00;0.00;0.62;1.47;0.90;;;25.10;28.30;;;;;;2230134;62;20378;-65
2022/09/27 05:18:01;0.00;0.00;0.62;0.00;0.00;0.62;2.87;1.10;;;25.10;28.30;;;;;;2229809;62;20586;-64
2022/09/27 05:21:09;0.00;0.00;0.62;0.00;0.00;0.62;2.57;1.10;;;25.10;28.30;;;;;;2229258;62;20381;-62
2022/09/27 05:24:00;0.00;0.00;0.62;0.00;0.00;0.62;1.30;0.73;;;25.10;28.30;;;;;;2229521;62;20442;-63
2022/09/27 05:26:47;0.00;0.00;0.62;0.00;0.00;0.62;2.30;1.20;;;25.10;28.30;;;;;;2226997;62;20394;-64
2022/09/27 05:29:32;0.00;0.00;0.62;0.00;0.00;0.62;1.80;0.90;;;25.10;28.40;;;;;;2226522;62;20393;-64
2022/09/27 05:32:31;0.00;0.00;0.62;0.00;0.00;0.62;2.07;0.87;;;25.10;28.30;;;;;;2227162;62;20623;-63
2022/09/27 05:35:41;0.00;0.00;0.62;0.00;0.00;0.62;2.17;0.90;;;25.10;28.40;;;;;;2229633;62;20413;-64
2022/09/27 05:38:26;0.00;0.00;0.62;0.00;0.00;0.62;1.90;0.80;;;25.10;28.40;;;;;;2226854;62;20393;-64
2022/09/27 05:41:15;0.00;0.00;0.62;0.00;0.00;0.62;1.83;1.10;;;25.10;28.40;;;;;;2226978;62;20365;-64
2022/09/27 05:44:01;0.00;0.00;0.62;0.00;0.00;0.62;2.20;1.03;;;25.10;28.40;;;;;;2226639;62;20373;-62
2022/09/27 05:46:46;0.00;0.00;0.62;0.00;0.00;0.62;3.73;1.20;;;25.00;28.40;;;;;;2229561;62;20374;-65
2022/09/27 05:49:32;0.00;0.00;0.62;0.00;0.00;0.62;1.47;0.90;;;25.00;28.40;;;;;;2229384;62;20385;-65
2022/09/27 05:52:18;0.00;0.00;0.62;0.00;0.00;0.62;1.60;0.97;;;25.00;28.40;;;;;;2229384;62;20411;-64
2022/09/27 05:55:04;0.00;0.00;0.62;0.00;0.00;0.62;2.33;1.10;;;25.00;28.40;;;;;;2228056;62;20389;-62
2022/09/27 05:57:56;0.00;0.00;0.62;0.00;0.00;0.62;2.10;1.07;;;25.00;28.50;;;;;;2225176;62;20389;-65
2022/09/27 06:00:46;0.00;0.00;0.62;0.00;0.00;0.62;1.20;0.63;;;25.00;28.50;;;;;;2225705;62;20358;-63
2022/09/27 06:03:51;0.00;0.00;0.62;0.00;0.00;0.62;1.50;0.90;;;25.00;28.50;;;;;;2226133;62;20422;-62
2022/09/27 06:06:50;0.00;0.00;0.62;0.00;0.00;0.62;1.90;1.20;;;24.90;28.50;;;;;;2225952;62;20750;-60
2022/09/27 06:09:36;0.00;0.00;0.62;0.00;0.00;0.62;1.93;0.90;;;24.90;28.50;;;;;;2228503;62;20774;-65
2022/09/27 06:12:21;0.00;0.00;0.62;0.00;0.00;0.62;1.90;1.13;;;24.90;28.60;;;;;;2227968;62;20370;-60
2022/09/27 06:15:07;0.00;0.00;0.62;0.00;0.00;0.62;1.97;1.00;;;24.90;28.60;;;;;;2228192;62;20373;-64
2022/09/27 06:18:04;0.00;0.00;0.62;0.00;0.00;0.62;1.50;0.80;;;24.90;28.60;;;;;;2225638;62;20425;-64
2022/09/27 06:20:49;0.00;0.00;0.62;0.00;0.00;0.62;1.60;0.93;;;24.80;28.60;;;;;;2225366;62;20446;-64
2022/09/27 06:23:37;0.00;0.00;0.62;0.00;0.00;0.62;2.50;1.00;;;24.80;28.60;;;;;;2226092;62;20481;-63
2022/09/27 06:26:32;0.00;0.00;0.62;0.00;0.00;0.62;1.67;0.90;;;24.90;28.70;;;;;;2225087;62;20369;-63
2022/09/27 06:29:34;0.00;0.00;0.62;0.00;0.00;0.62;3.10;1.00;;;24.80;28.70;;;;;;2225601;62;20868;-60
2022/09/27 06:32:21;0.00;0.00;0.62;0.00;0.00;0.62;1.83;0.90;;;24.90;28.70;;;;;;2226312;62;20483;-65
2022/09/27 06:35:15;0.00;0.00;0.62;0.00;0.00;0.62;1.97;0.90;;;24.80;28.70;;;;;;2225325;62;20415;-69
2022/09/27 06:38:03;0.00;0.00;0.62;0.00;0.00;0.62;3.73;1.30;;;24.90;28.70;;;;;;2225477;62;20754;-68
2022/09/27 06:40:50;0.00;0.00;0.62;0.00;0.00;0.62;1.57;1.03;;;24.80;28.70;;;;;;2228284;62;20408;-64
2022/09/27 06:43:50;0.00;0.00;0.62;0.00;0.00;0.62;2.23;1.20;;;24.80;28.80;;;;;;2225796;62;20415;-59
2022/09/27 06:46:54;0.00;0.00;0.62;0.00;0.00;0.62;2.67;1.40;;;24.80;28.80;;;;;;2226172;62;20369;-60
2022/09/27 06:49:57;0.00;0.00;0.62;0.00;0.00;0.62;2.33;1.00;;;24.80;28.80;;;;;;2225418;62;20405;-61
2022/09/27 06:52:49;0.00;0.00;0.62;0.00;0.00;0.62;1.90;1.10;;;24.80;28.70;;;;;;2225774;62;20767;-63
2022/09/27 06:55:35;0.00;0.00;0.62;0.00;0.00;0.62;1.40;0.90;;;24.80;28.70;;;;;;2231843;62;20503;-65
2022/09/27 07:01:44;0.00;0.00;0.62;0.00;0.00;0.62;2.40;1.23;;;24.80;29.30;;;;;;2230321;62;20595;-65
2022/09/27 07:04:49;0.00;0.00;0.62;0.00;0.00;0.62;2.80;1.27;;;24.80;28.70;;;;;;2229462;62;20402;-66
2022/09/27 07:08:00;0.00;0.00;0.62;0.00;0.00;0.62;2.23;1.40;;;24.80;28.80;;;;;;2229633;62;20416;-65
2022/09/27 07:10:45;0.00;0.00;0.62;0.00;0.00;0.62;1.90;1.27;;;24.70;28.70;;;;;;2231884;62;20397;-64
2022/09/27 07:13:33;0.00;0.00;0.62;0.00;0.00;0.62;1.60;1.10;;;24.80;28.80;;;;;;2229995;62;20729;-63
2022/09/27 07:16:18;0.00;0.00;0.62;0.00;0.00;0.62;1.50;1.20;;;24.80;28.80;;;;;;2230404;62;20627;-67
2022/09/27 07:19:06;0.00;0.00;0.62;0.00;0.00;0.62;1.77;1.20;;;24.80;28.80;;;;;;2231973;62;20393;-63
2022/09/27 07:21:52;0.00;0.00;0.62;0.00;0.00;0.62;3.20;1.30;;;24.70;28.80;;;;;;2232792;62;20571;-62
2022/09/27 07:24:38;0.00;0.00;0.62;0.00;0.00;0.62;1.73;1.10;;;24.80;28.90;;;;;;2230571;62;20369;-65
2022/09/27 07:27:25;0.00;0.00;0.62;0.00;0.00;0.62;3.10;1.77;;;24.70;28.80;;;;;;2230485;62;20595;-67
2022/09/27 07:30:12;0.00;0.00;0.62;0.00;0.00;0.62;2.00;1.20;;;24.70;28.90;;;;;;2234484;62;20787;-65
2022/09/27 07:32:58;0.00;0.00;0.62;0.00;0.00;0.62;2.23;1.53;;;24.70;28.90;;;;;;2234403;62;20736;-62
2022/09/27 07:35:43;0.00;0.00;0.62;0.00;0.00;0.62;4.03;1.40;;;24.70;28.90;;;;;;2234755;62;20376;-63
2022/09/27 07:38:28;0.00;0.00;0.62;0.00;0.00;0.62;2.57;1.30;;;24.70;28.90;;;;;;2234833;62;20611;-65
2022/09/27 07:41:15;0.00;0.00;0.62;0.00;0.00;0.62;2.40;1.43;;;24.70;28.90;;;;;;2234348;62;20372;-66
2022/09/27 07:44:02;0.00;0.00;0.62;0.00;0.00;0.62;2.13;1.10;;;24.70;28.90;;;;;;2237036;62;20581;-60
2022/09/27 07:46:49;0.00;0.00;0.62;0.00;0.00;0.62;1.80;1.10;;;24.70;28.90;;;;;;2234057;62;20367;-60
2022/09/27 07:49:40;0.00;0.00;0.62;0.00;0.00;0.62;2.70;1.07;;;24.70;28.90;;;;;;2232830;62;20418;-67
2022/09/27 07:52:42;0.00;0.00;0.62;0.00;0.00;0.62;2.80;1.00;;;24.70;28.90;;;;;;2230934;62;20406;-64
2022/09/27 07:55:51;0.00;0.00;0.62;0.00;0.00;0.62;2.50;1.10;;;24.70;28.90;;;;;;2230623;62;20369;-62
2022/09/27 07:58:40;0.00;0.00;0.62;0.00;0.00;0.62;2.70;1.23;;;24.70;28.90;;;;;;2230234;62;20416;-65
2022/09/27 08:01:27;0.00;0.00;0.62;0.00;0.00;0.62;2.33;1.20;;;24.70;28.90;;;;;;2233230;62;20413;-63
2022/09/27 08:04:12;0.00;0.00;0.62;0.00;0.00;0.62;1.90;1.17;;;24.70;28.90;;;;;;2230133;62;20598;-62
2022/09/27 08:06:57;0.00;0.00;0.62;0.00;0.00;0.62;2.07;1.00;;;24.80;29.00;;;;;;2231120;62;20644;-60
2022/09/27 08:09:43;0.00;0.00;0.62;0.00;0.00;0.62;1.67;1.07;;;24.80;29.00;;;;;;2608552;46;20612;-67
2022/09/27 08:12:28;0.00;0.00;0.62;0.00;0.00;0.62;1.73;1.20;;;24.80;29.00;;;;;;2234911;62;20367;-65
2022/09/27 08:15:15;0.00;0.00;0.62;0.00;0.00;0.62;1.77;1.10;;;24.90;29.00;;;;;;2237440;62;20452;-65
2022/09/27 08:18:00;0.00;0.00;0.62;0.00;0.00;0.62;2.73;1.03;;;24.90;29.00;;;;;;2234279;62;20395;-63
2022/09/27 08:21:07;0.00;0.00;0.62;0.00;0.00;0.62;1.80;1.07;;;24.90;29.00;;;;;;2234928;62;20368;-62
2022/09/27 08:24:07;0.00;0.00;0.62;0.00;0.00;0.62;1.67;1.00;;;24.90;29.00;;;;;;2234990;62;20405;-64
2022/09/27 08:27:12;0.00;0.00;0.62;0.00;0.00;0.62;2.17;1.10;;;24.90;29.00;;;;;;2235325;62;20372;-62
2022/09/27 08:30:10;0.00;0.00;0.62;0.00;0.00;0.62;1.47;0.80;;;25.00;29.10;;;;;;2234782;62;20392;-61
2022/09/27 08:32:57;0.00;0.00;0.62;0.00;0.00;0.62;2.23;1.07;;;25.00;29.00;;;;;;2234961;62;20364;-64
2022/09/27 08:35:43;0.00;0.00;0.62;0.00;0.00;0.62;1.70;0.90;;;25.00;29.00;;;;;;2234464;62;20589;-63
2022/09/27 08:38:28;0.00;0.00;0.62;0.00;0.00;0.62;1.60;0.97;;;25.00;29.00;;;;;;2234732;62;20412;-61
2022/09/27 08:41:29;0.00;0.00;0.62;0.00;0.00;0.62;1.80;0.93;;;25.10;29.10;;;;;;2234087;62;20428;-65
2022/09/27 08:44:26;0.00;0.00;0.62;0.00;0.00;0.62;2.97;1.23;;;25.10;29.00;;;;;;2463926;54;20392;-63
2022/09/27 08:47:26;0.00;0.00;0.62;0.00;0.00;0.62;1.50;1.10;;;25.10;29.00;;;;;;2231971;62;20841;-63
2022/09/27 08:50:28;0.00;0.00;0.62;0.00;0.00;0.62;1.90;1.00;;;25.10;29.00;;;;;;2234256;62;20420;-64
2022/09/27 08:53:22;0.00;0.00;0.62;0.00;0.00;0.62;1.70;1.10;;;25.10;29.10;;;;;;2235853;62;20376;-63
2022/09/27 08:56:09;0.00;0.00;0.62;0.00;0.00;0.62;2.00;1.20;;;25.10;29.00;;;;;;2236474;62;20420;-63
2022/09/27 08:59:11;0.00;0.00;0.62;0.00;0.00;0.62;1.80;1.07;;;25.20;29.00;;;;;;2236656;62;20387;-67
2022/09/27 09:01:56;0.00;0.00;0.62;0.00;0.00;0.62;2.77;0.90;;;25.20;29.00;;;;;;2236431;62;20476;-64
2022/09/27 09:05:08;0.00;0.00;0.62;0.00;0.00;0.62;1.50;1.10;;;25.20;29.00;;;;;;2322358;54;20508;-64
2022/09/27 09:08:28;0.00;0.00;0.62;0.00;0.00;0.62;1.70;0.90;;;25.20;29.00;;;;;;2234384;62;20380;-62
2022/09/27 09:15:07;0.00;0.00;0.62;0.00;0.00;0.62;1.60;0.90;;;25.30;29.00;;;;;;2233961;62;20736;-62
2022/09/27 09:18:21;0.00;0.00;0.62;0.00;0.00;0.62;2.23;1.17;;;25.30;29.00;;;;;;2238732;62;20589;-63
2022/09/27 09:21:33;0.00;0.00;0.62;0.00;0.00;0.62;1.80;0.83;;;25.30;29.00;;;;;;2234985;62;20379;-65
2022/09/27 09:24:35;0.00;0.00;0.62;0.00;0.00;0.62;1.40;0.90;;;25.30;29.00;;;;;;2233301;62;20417;-68
2022/09/27 09:27:32;0.00;0.00;0.62;0.00;0.00;0.62;1.63;1.10;;;25.40;29.10;;;;;;2234078;62;20573;-62
2022/09/27 09:30:21;0.00;0.00;0.62;0.00;0.00;0.62;1.70;1.07;;;25.40;29.10;;;;;;2666021;46;20389;-63
2022/09/27 09:33:22;0.00;0.00;0.62;0.00;0.00;0.62;2.33;1.00;;;25.40;29.00;;;;;;2231230;62;20383;-62
2022/09/27 09:36:19;0.00;0.00;0.62;0.00;0.00;0.62;1.90;1.17;;;25.40;29.00;;;;;;2237342;62;20363;-66
2022/09/27 09:39:13;0.00;0.00;0.62;0.00;0.00;0.62;2.10;1.10;;;25.40;29.00;;;;;;2229236;62;20462;-64
2022/09/27 09:42:14;0.00;0.00;0.62;0.00;0.00;0.62;2.07;0.83;;;25.40;29.10;;;;;;2229228;62;20369;-66
2022/09/27 09:45:04;0.00;0.00;0.62;0.00;0.00;0.62;1.40;0.90;;;25.50;29.10;;;;;;2232322;62;20377;-65
2022/09/27 09:48:00;0.00;0.00;0.62;0.00;0.00;0.62;1.80;1.30;;;25.50;29.10;;;;;;2231930;62;20372;-63
2022/09/27 09:50:50;0.00;0.00;0.62;0.00;0.00;0.62;1.40;0.90;;;25.50;29.10;;;;;;2233444;62;20689;-68
2022/09/27 09:53:41;0.00;0.00;0.62;0.00;0.00;0.62;1.70;1.00;;;25.50;29.10;;;;;;2230615;62;20372;-67
2022/09/27 09:56:31;0.00;0.00;0.62;0.00;0.00;0.62;1.60;1.00;;;25.60;29.10;;;;;;2230500;62;20396;-67
2022/09/27 09:59:24;0.00;0.00;0.62;0.00;0.00;0.62;1.57;1.03;;;25.60;29.10;;;;;;2233706;62;20388;-66
2022/09/27 10:02:29;0.00;0.00;0.62;0.00;0.00;0.62;1.80;1.13;;;25.70;29.10;;;;;;2233338;62;20428;-62
2022/09/27 10:05:25;0.00;0.00;0.62;0.00;0.00;0.62;1.70;0.90;;;25.60;29.00;;;;;;2233425;62;20390;-60
2022/09/27 10:08:21;0.00;0.00;0.62;0.00;0.00;0.62;2.00;1.17;;;25.70;29.00;;;;;;2233160;62;20387;-62
2022/09/27 10:11:21;0.00;0.00;0.62;0.00;0.00;0.62;1.80;1.10;;;25.70;29.00;;;;;;2233343;62;20400;-61
2022/09/27 10:14:19;0.00;0.00;0.62;0.00;0.00;0.62;1.80;1.00;;;25.70;29.00;;;;;;2233204;62;20368;-61
2022/09/27 10:17:13;0.00;0.00;0.62;0.00;0.00;0.62;2.10;1.67;;;25.80;29.00;;;;;;2233325;62;20440;-61
2022/09/27 10:20:01;0.00;0.00;0.62;0.00;0.00;0.62;1.47;0.97;;;25.80;28.90;;;;;;2236027;62;20409;-61
2022/09/27 10:22:54;0.00;0.00;0.62;0.00;0.00;0.62;2.00;1.10;;;25.80;28.90;;;;;;2235819;62;20785;-61
2022/09/27 10:25:59;0.00;0.00;0.62;0.00;0.00;0.62;4.07;1.53;;;25.80;28.90;;;;;;2233508;62;20367;-60
2022/09/27 10:28:57;0.00;0.00;0.62;0.00;0.00;0.62;2.43;1.30;;;25.80;28.90;;;;;;2235694;62;20416;-60
2022/09/27 10:32:00;0.00;0.00;0.62;0.00;0.00;0.62;1.77;0.90;;;25.80;28.80;;;;;;2233370;62;20400;-61
2022/09/27 10:35:32;0.00;0.00;0.62;0.00;0.00;0.62;1.93;1.30;;;25.80;28.80;;;;;;2236150;62;20420;-61
2022/09/27 10:38:26;0.00;0.00;0.62;0.00;0.00;0.62;1.43;0.90;;;25.80;28.80;;;;;;2235524;62;20660;-60
2022/09/27 10:41:30;0.00;0.00;0.62;0.00;0.00;0.62;1.40;1.13;;;25.90;28.80;;;;;;2235936;62;20456;-61
2022/09/27 10:44:27;0.00;0.00;0.62;0.00;0.00;0.62;1.73;1.10;;;25.90;28.70;;;;;;2233132;62;20389;-61
2022/09/27 10:47:25;0.00;0.00;0.62;0.00;0.00;0.62;1.80;1.00;;;25.90;28.70;;;;;;2232942;62;20372;-61
2022/09/27 10:50:24;0.00;0.00;0.62;0.00;0.00;0.62;1.50;1.10;;;25.90;28.70;;;;;;2233364;62;20376;-60
2022/09/27 10:53:21;0.00;0.00;0.62;0.00;0.00;0.62;1.80;0.93;;;25.90;28.60;;;;;;2233203;62;20708;-60
2022/09/27 10:56:23;0.00;0.00;0.62;0.00;0.00;0.62;2.00;1.20;;;25.90;28.60;;;;;;2235766;62;20774;-60
2022/09/27 10:59:17;0.00;0.00;0.62;0.00;0.00;0.62;1.50;1.00;;;26.00;28.60;;;;;;2232905;62;20426;-60
2022/09/27 11:02:05;0.00;0.00;0.62;0.00;0.00;0.62;1.63;0.83;;;26.00;28.60;;;;;;2236897;62;20759;-60
2022/09/27 11:05:11;0.00;0.00;0.62;0.00;0.00;0.62;1.87;1.20;;;26.00;28.60;;;;;;2237136;62;20399;-60
2022/09/27 11:08:02;0.00;0.00;0.62;0.00;0.00;0.62;1.70;0.93;;;26.00;28.60;;;;;;2236883;62;20690;-60
2022/09/27 11:11:15;0.00;0.00;0.62;0.00;0.00;0.62;1.73;1.00;;;26.00;28.60;;;;;;2239607;62;20431;-60
2022/09/27 11:14:06;0.00;0.00;0.62;0.00;0.00;0.62;2.20;1.27;;;26.00;28.60;;;;;;2234186;62;20399;-62
2022/09/27 11:17:13;0.00;0.00;0.62;0.00;0.00;0.62;1.80;1.10;;;26.10;28.60;;;;;;2236927;62;20390;-60
2022/09/27 11:20:32;0.00;0.00;0.62;0.00;0.00;0.62;1.43;0.90;;;26.10;28.60;;;;;;2236746;62;20750;-60
2022/09/27 11:23:39;0.00;0.00;0.62;0.00;0.00;0.62;1.67;1.10;;;26.10;28.50;;;;;;2237659;62;20391;-60
2022/09/27 11:26:48;0.00;0.00;0.62;0.00;0.00;0.62;1.60;0.80;;;26.10;28.50;;;;;;2236867;62;20404;-60
2022/09/27 11:29:46;0.00;0.00;0.62;0.00;0.00;0.62;1.57;1.07;;;26.10;28.50;;;;;;2237554;62;20411;-60
2022/09/27 11:33:34;0.00;0.00;0.62;0.00;0.00;0.62;1.70;1.17;;;26.20;28.50;;;;;;2237055;62;20600;-60
2022/09/27 11:36:36;0.00;0.00;0.62;0.00;0.00;0.62;1.40;0.87;;;26.10;28.40;;;;;;2236997;62;20423;-67
2022/09/27 11:39:31;0.00;0.00;0.62;0.00;0.00;0.62;2.17;1.13;;;26.10;28.40;;;;;;2237969;61;20652;-65